Aviation Digital Data Service (ADDS)

Output produced by METARs form (0707 UTC 23 February 2019)
found at http://www.aviationweather.gov/metar/data/
 
UTSB 230630Z 18008KT CAVOK 10/02 Q1021 R01/CLRD70 NOSIG
TAF UTSB 230500Z 2306/2406 VRB03KT 7000 NSC 
     TEMPO 2306/2317 17012KT 4000 HZ SCT033
       
UTSK 230630Z VRB02KT CAVOK 08/02 Q1022 R16/CLRD70
TAF UTSK 230550Z 2307/2316 VRB04KT CAVOK 
     TEMPO 2307/2313 23010KT
       
UTSS 230630Z 14006KT 110V180 9999 NSC 12/M07 Q1021 R09/70D NOSIG
TAF UTSS 230500Z 2306/2406 15010KT 9999 NSC 
     TEMPO 2306/2312 24012KT
       
UTST 230630Z VRB02KT CAVOK 11/M02 Q1023 R88/CLRD70 NOSIG
TAF UTST 230500Z 2306/2406 VRB06KT 6000 SCT050CB BKN100 
     TEMPO 2306/2313 10010G20KT SCT030
       
UTNU 230630Z 02004KT 6000 NSC 07/01 Q1022 R31/CLRD70 NOSIG
TAF UTNU 230502Z 2306/2406 06010G20KT 7000 NSC 
     TEMPO 2306/2312 VRB05KT SCT040
       
UTTT 230630Z 22002KT CAVOK 11/M07 Q1023 R08R/CLRD70 NOSIG
TAF UTTT 230500Z 2306/2406 09012KT 7000 NSC